Time;durP1;ratioP1;P1;durP2;ratioP2;P2;SDS_P1;SDS_P2;PMS_P1;PMS_P2;Temp;Humidity;BMP_temperature;BMP_pressure;BME280_temperature;BME280_humidity;BME280_pressure;Samples;Min_cycle;Max_cycle;Signal;HPM_P1;HPM_P2
2024/01/26 00:01:51;;;;;;;;;;;;;;;6.27;57.39;100213.34;4418450;32;34828;-80
2024/01/26 00:04:24;;;;;;;;;;;;;;;6.16;57.90;100208.91;4417043;32;33903;-81
2024/01/26 00:06:54;;;;;;;;;;;;;;;6.15;57.90;100207.16;4420983;32;34114;-81
2024/01/26 00:09:34;;;;;;;;;;;;;;;6.35;57.37;100211.72;4433319;32;33476;-80
2024/01/26 00:12:02;;;;;;;;;;;;;;;6.38;57.18;100214.34;4421252;32;33832;-81
2024/01/26 00:14:31;;;;;;;;;;;;;;;6.05;58.22;100213.06;4420519;32;35021;-80
2024/01/26 00:17:03;;;;;;;;;;;;;;;6.17;57.94;100207.19;4429141;32;34032;-81
2024/01/26 00:19:35;;;;;;;;;;;;;;;6.08;58.08;100212.22;4436333;32;32858;-80
2024/01/26 00:22:04;;;;;;;;;;;;;;;6.26;57.60;100209.91;4424824;32;34727;-80
2024/01/26 00:24:36;;;;;;;;;;;;;;;6.22;57.53;100204.69;4418051;32;34631;-80
2024/01/26 00:27:06;;;;;;;;;;;;;;;6.13;57.88;100220.88;4419691;32;33551;-80
2024/01/26 00:29:35;;;;;;;;;;;;;;;6.25;57.66;100220.19;4410017;32;32856;-80
2024/01/26 00:32:04;;;;;;;;;;;;;;;6.04;58.41;100219.06;4420549;32;33978;-80
2024/01/26 00:34:37;;;;;;;;;;;;;;;6.10;58.19;100229.44;4420885;32;33792;-80
2024/01/26 00:37:07;;;;;;;;;;;;;;;6.05;58.31;100219.91;4432459;32;33655;-80
2024/01/26 00:39:37;;;;;;;;;;;;;;;5.99;58.80;100228.41;4421873;32;33062;-80
2024/01/26 00:42:13;;;;;;;;;;;;;;;6.05;58.46;100233.66;4420977;32;34597;-80
2024/01/26 00:44:41;;;;;;;;;;;;;;;6.13;58.41;100238.91;4417466;32;33505;-80
2024/01/26 00:47:16;;;;;;;;;;;;;;;6.07;58.72;100244.84;4415613;32;34695;-81
2024/01/26 00:49:46;;;;;;;;;;;;;;;6.14;58.57;100240.66;4415334;32;33074;-80
2024/01/26 00:52:22;;;;;;;;;;;;;;;6.17;58.41;100246.69;4396923;32;1098154;-80
2024/01/26 00:54:51;;;;;;;;;;;;;;;6.32;58.21;100251.19;4426159;32;35018;-81
2024/01/26 00:57:26;;;;;;;;;;;;;;;6.25;58.31;100245.94;4408992;32;33898;-80
2024/01/26 01:00:00;;;;;;;;;;;;;;;6.15;58.87;100255.25;4419117;32;31624;-81
2024/01/26 01:02:29;;;;;;;;;;;;;;;6.26;58.47;100253.69;4413897;32;34482;-80
2024/01/26 01:04:59;;;;;;;;;;;;;;;6.13;58.60;100252.66;4428213;32;33822;-80
2024/01/26 01:07:29;;;;;;;;;;;;;;;6.34;58.19;100259.81;4433639;32;34667;-80
2024/01/26 01:10:01;;;;;;;;;;;;;;;6.15;58.76;100263.84;4404390;32;33464;-80
2024/01/26 01:12:30;;;;;;;;;;;;;;;6.00;59.33;100245.59;4400261;32;33454;-81
2024/01/26 01:15:11;;;;;;;;;;;;;;;5.90;59.67;100242.00;4400025;32;33663;-81
2024/01/26 01:20:15;;;;;;;;;;;;;;;6.22;58.73;100225.28;4408038;32;33613;-81
2024/01/26 01:22:46;;;;;;;;;;;;;;;6.35;58.28;100228.03;4399552;32;33494;-82
2024/01/26 01:25:15;;;;;;;;;;;;;;;6.17;58.78;100226.09;4399516;32;33839;-81
2024/01/26 01:27:45;;;;;;;;;;;;;;;6.09;59.07;100234.56;4398654;32;34288;-81
2024/01/26 01:30:15;;;;;;;;;;;;;;;6.22;58.63;100230.44;4401690;32;33470;-81
2024/01/26 01:32:46;;;;;;;;;;;;;;;6.18;58.90;100237.25;4400057;32;33638;-81
2024/01/26 01:35:18;;;;;;;;;;;;;;;6.21;58.67;100247.63;4399530;32;33723;-81
2024/01/26 01:37:47;;;;;;;;;;;;;;;6.33;58.31;100258.09;4405490;32;34357;-81
2024/01/26 01:40:19;;;;;;;;;;;;;;;6.15;58.73;100261.28;4402380;32;32554;-81
2024/01/26 01:42:52;;;;;;;;;;;;;;;6.54;57.57;100261.78;4406828;32;33708;-81
2024/01/26 01:45:21;;;;;;;;;;;;;;;6.50;57.58;100262.56;4392736;32;34088;-81
2024/01/26 01:47:50;;;;;;;;;;;;;;;6.40;57.69;100275.38;4405891;32;34568;-81
2024/01/26 01:50:24;;;;;;;;;;;;;;;6.26;57.92;100276.88;4410283;32;34280;-80
2024/01/26 01:52:53;;;;;;;;;;;;;;;6.44;57.58;100270.25;4407487;32;34683;-81
2024/01/26 01:55:25;;;;;;;;;;;;;;;6.38;57.53;100269.31;4414628;32;35308;-81
2024/01/26 01:57:57;;;;;;;;;;;;;;;6.37;57.41;100270.16;4420074;32;37122;-80
2024/01/26 02:00:26;;;;;;;;;;;;;;;6.57;57.04;100259.22;4414029;32;33552;-81
2024/01/26 02:03:00;;;;;;;;;;;;;;;6.32;57.65;100266.66;4401061;32;33567;-81
2024/01/26 02:05:30;;;;;;;;;;;;;;;6.47;57.35;100259.97;4407490;32;34012;-81
2024/01/26 02:08:00;;;;;;;;;;;;;;;6.29;57.89;100268.34;4390737;32;33732;-80
2024/01/26 02:10:29;;;;;;;;;;;;;;;6.27;57.80;100272.59;4402186;32;34089;-81
2024/01/26 02:12:58;;;;;;;;;;;;;;;6.41;57.51;100278.81;4402050;32;34589;-80
2024/01/26 02:15:27;;;;;;;;;;;;;;;6.24;57.75;100263.13;4412322;32;34254;-81
2024/01/26 02:18:09;;;;;;;;;;;;;;;6.23;57.61;100256.22;4422970;32;33907;-80
2024/01/26 02:20:40;;;;;;;;;;;;;;;6.20;57.79;100262.19;4417082;32;33428;-80
2024/01/26 02:23:26;;;;;;;;;;;;;;;6.12;57.90;100266.38;4417164;32;33759;-81
2024/01/26 02:25:55;;;;;;;;;;;;;;;6.05;58.20;100268.84;4424256;32;34516;-80
2024/01/26 02:28:24;;;;;;;;;;;;;;;6.18;57.73;100276.75;4437595;32;33909;-81
2024/01/26 02:30:55;;;;;;;;;;;;;;;6.00;58.38;100275.66;4429406;32;33134;-80
2024/01/26 02:33:31;;;;;;;;;;;;;;;5.88;58.79;100272.00;4416836;32;34141;-80
2024/01/26 02:36:00;;;;;;;;;;;;;;;5.70;59.44;100275.19;4418242;32;34569;-81
2024/01/26 02:38:30;;;;;;;;;;;;;;;5.62;59.88;100271.59;4427939;32;33673;-81
2024/01/26 02:40:59;;;;;;;;;;;;;;;5.82;59.20;100278.78;4422196;32;33789;-80
2024/01/26 02:46:02;;;;;;;;;;;;;;;5.78;59.23;100271.00;4417204;32;34315;-80
2024/01/26 02:48:30;;;;;;;;;;;;;;;5.86;58.78;100271.13;4428980;32;33887;-81
2024/01/26 02:51:00;;;;;;;;;;;;;;;5.70;58.88;100269.12;4423820;32;33886;-81
2024/01/26 02:53:31;;;;;;;;;;;;;;;5.76;59.01;100274.41;4421818;32;34213;-80
2024/01/26 02:56:01;;;;;;;;;;;;;;;5.76;59.08;100275.25;4417045;32;34453;-81
2024/01/26 02:58:30;;;;;;;;;;;;;;;5.64;59.57;100279.34;4418638;32;33693;-80
2024/01/26 03:01:06;;;;;;;;;;;;;;;5.88;58.74;100279.75;4422715;32;33159;-81
2024/01/26 03:03:36;;;;;;;;;;;;;;;5.87;58.65;100280.59;4422639;32;34112;-80
2024/01/26 03:06:11;;;;;;;;;;;;;;;5.82;58.88;100289.06;4416845;32;33146;-80
2024/01/26 03:08:44;;;;;;;;;;;;;;;5.60;59.41;100288.72;4416767;32;34885;-81
2024/01/26 03:11:14;;;;;;;;;;;;;;;5.70;59.34;100292.31;4417045;32;32468;-80
2024/01/26 03:13:47;;;;;;;;;;;;;;;5.45;60.11;100286.75;4417753;32;34093;-80
2024/01/26 03:16:15;;;;;;;;;;;;;;;5.38;60.66;100287.50;4422082;32;34079;-80
2024/01/26 03:18:51;;;;;;;;;;;;;;;5.24;61.03;100278.66;4418455;32;34409;-81
2024/01/26 03:21:26;;;;;;;;;;;;;;;5.30;60.97;100278.78;4416992;32;34021;-80
2024/01/26 03:23:55;;;;;;;;;;;;;;;5.22;61.18;100280.34;4416744;32;34149;-80
2024/01/26 03:26:25;;;;;;;;;;;;;;;5.16;61.61;100290.53;4426798;32;34988;-80
2024/01/26 03:28:54;;;;;;;;;;;;;;;4.94;62.54;100276.41;4437509;32;34629;-80
2024/01/26 03:31:23;;;;;;;;;;;;;;;4.82;63.17;100275.31;4423659;32;33219;-81
2024/01/26 03:33:56;;;;;;;;;;;;;;;4.75;63.55;100275.19;4418272;32;34108;-81
2024/01/26 03:36:26;;;;;;;;;;;;;;;4.88;63.29;100270.31;4423547;32;34400;-80
2024/01/26 03:38:55;;;;;;;;;;;;;;;4.89;63.28;100268.59;4437537;32;34837;-81
2024/01/26 03:41:26;;;;;;;;;;;;;;;4.95;63.21;100270.41;4420874;32;33022;-81
2024/01/26 03:43:56;;;;;;;;;;;;;;;4.87;63.30;100278.84;4415896;32;34942;-80
2024/01/26 03:46:30;;;;;;;;;;;;;;;5.10;62.56;100274.16;4428786;32;35169;-81
2024/01/26 03:48:59;;;;;;;;;;;;;;;5.08;62.57;100287.81;4415917;32;34223;-81
2024/01/26 03:51:28;;;;;;;;;;;;;;;5.13;62.52;100286.19;4407984;32;31715;-80
2024/01/26 03:54:01;;;;;;;;;;;;;;;5.37;61.54;100280.63;4419451;32;33698;-80
2024/01/26 03:56:34;;;;;;;;;;;;;;;5.41;61.22;100284.97;4432637;32;34356;-81
2024/01/26 03:59:02;;;;;;;;;;;;;;;5.27;61.58;100294.16;4422205;32;34279;-80
2024/01/26 04:01:31;;;;;;;;;;;;;;;5.44;61.36;100297.91;4421568;32;33660;-81
2024/01/26 04:04:02;;;;;;;;;;;;;;;5.49;60.93;100295.41;4476480;26;34707;-80
2024/01/26 04:06:38;;;;;;;;;;;;;;;5.44;61.19;100292.75;4401408;32;34107;-80
2024/01/26 04:09:07;;;;;;;;;;;;;;;5.40;61.22;100302.97;4447344;26;35149;-81
2024/01/26 04:11:41;;;;;;;;;;;;;;;5.19;62.18;100306.00;4403222;32;32936;-80
2024/01/26 04:14:13;;;;;;;;;;;;;;;5.26;61.91;100311.28;4392084;32;34522;-80
2024/01/26 04:16:43;;;;;;;;;;;;;;;5.28;61.75;100309.62;4390781;32;34872;-81
2024/01/26 04:19:14;;;;;;;;;;;;;;;5.09;62.34;100320.41;4403377;32;34089;-81
2024/01/26 04:21:52;;;;;;;;;;;;;;;4.96;62.99;100326.16;4394206;32;33313;-80
2024/01/26 04:24:21;;;;;;;;;;;;;;;5.29;61.84;100321.66;4444384;27;33495;-80
2024/01/26 04:26:54;;;;;;;;;;;;;;;5.27;61.67;100331.06;4423312;27;32301;-81
2024/01/26 04:29:29;;;;;;;;;;;;;;;5.43;61.01;100342.47;4396999;32;32873;-80
2024/01/26 04:31:58;;;;;;;;;;;;;;;5.35;61.25;100349.19;4393856;32;33639;-80
2024/01/26 04:34:27;;;;;;;;;;;;;;;5.19;61.68;100352.31;4402899;32;36395;-80
2024/01/26 04:36:56;;;;;;;;;;;;;;;5.22;61.68;100367.78;4390359;32;33560;-80
2024/01/26 04:39:25;;;;;;;;;;;;;;;5.21;61.82;100372.06;4403682;32;33998;-80
2024/01/26 04:41:56;;;;;;;;;;;;;;;5.26;61.58;100367.88;4399951;32;33754;-80
2024/01/26 04:44:25;;;;;;;;;;;;;;;5.16;62.15;100365.13;4401246;32;33200;-80
2024/01/26 04:46:57;;;;;;;;;;;;;;;4.89;63.07;100358.59;4436091;27;33733;-80
2024/01/26 04:49:33;;;;;;;;;;;;;;;4.63;64.25;100358.03;4400109;32;33440;-80
2024/01/26 04:52:02;;;;;;;;;;;;;;;4.46;64.97;100339.69;4463274;26;33239;-80
2024/01/26 04:54:32;;;;;;;;;;;;;;;4.17;65.90;100333.88;4400647;32;33407;-81
2024/01/26 04:57:07;;;;;;;;;;;;;;;4.38;65.45;100339.50;4400564;32;33299;-80
2024/01/26 04:59:40;;;;;;;;;;;;;;;4.24;65.90;100343.47;4406549;32;35111;-80
2024/01/26 05:02:14;;;;;;;;;;;;;;;4.15;66.35;100346.69;4471554;27;33229;-80
2024/01/26 05:04:46;;;;;;;;;;;;;;;4.28;66.00;100341.00;4402941;32;33861;-80
2024/01/26 05:07:15;;;;;;;;;;;;;;;4.19;66.29;100347.62;4391091;32;34861;-80
2024/01/26 05:09:47;;;;;;;;;;;;;;;4.15;66.39;100346.69;4401695;32;33741;-81
2024/01/26 05:12:17;;;;;;;;;;;;;;;4.27;65.97;100346.97;4450327;27;33434;-81
2024/01/26 05:14:47;;;;;;;;;;;;;;;4.40;65.71;100353.28;4399592;32;34860;-80
2024/01/26 05:17:17;;;;;;;;;;;;;;;4.44;65.60;100357.62;4401685;32;34545;-81
2024/01/26 05:19:49;;;;;;;;;;;;;;;4.38;65.90;100360.06;4395521;32;33923;-80
2024/01/26 05:22:23;;;;;;;;;;;;;;;4.49;65.57;100363.75;4400403;32;33882;-80
2024/01/26 05:24:53;;;;;;;;;;;;;;;4.45;65.65;100379.94;4399776;32;33165;-80
2024/01/26 05:27:23;;;;;;;;;;;;;;;4.39;65.90;100377.19;4401771;32;34152;-81
2024/01/26 05:29:54;;;;;;;;;;;;;;;4.49;65.54;100379.16;4385904;32;34217;-80
2024/01/26 05:32:25;;;;;;;;;;;;;;;4.68;65.11;100384.69;4400270;32;33416;-81
2024/01/26 05:34:53;;;;;;;;;;;;;;;4.35;65.97;100390.84;4407729;32;35224;-80
2024/01/26 05:37:24;;;;;;;;;;;;;;;4.48;65.62;100389.41;4400161;32;33770;-80
2024/01/26 05:39:53;;;;;;;;;;;;;;;4.53;65.49;100392.94;4400449;32;34304;-80
2024/01/26 05:42:24;;;;;;;;;;;;;;;4.39;66.04;100386.63;4393487;32;32381;-80
2024/01/26 05:44:54;;;;;;;;;;;;;;;4.36;66.41;100386.56;4406404;32;34690;-80
2024/01/26 05:47:29;;;;;;;;;;;;;;;4.23;66.84;100380.28;4403371;32;33461;-80
2024/01/26 05:49:58;;;;;;;;;;;;;;;4.26;67.01;100382.91;4400108;32;34154;-80
2024/01/26 05:52:27;;;;;;;;;;;;;;;4.30;66.73;100373.56;4400113;32;33795;-80
2024/01/26 05:54:56;;;;;;;;;;;;;;;4.29;66.96;100377.84;4403794;32;34291;-81
2024/01/26 05:57:26;;;;;;;;;;;;;;;4.24;67.01;100371.72;4419988;32;35003;-80
2024/01/26 05:59:59;;;;;;;;;;;;;;;4.38;66.65;100384.91;4399760;32;34343;-80
2024/01/26 06:02:28;;;;;;;;;;;;;;;4.13;67.50;100371.50;4398321;32;31838;-80
2024/01/26 06:04:58;;;;;;;;;;;;;;;4.14;67.54;100372.34;4401076;32;33679;-81
2024/01/26 06:07:27;;;;;;;;;;;;;;;4.11;67.81;100373.16;4405748;32;33819;-80
2024/01/26 06:10:01;;;;;;;;;;;;;;;4.07;68.04;100379.87;4403480;32;34909;-80
2024/01/26 06:12:39;;;;;;;;;;;;;;;4.16;67.78;100376.69;4399154;32;33440;-81
2024/01/26 06:15:21;;;;;;;;;;;;;;;4.43;66.83;100388.44;4395328;32;34151;-80
2024/01/26 06:17:50;;;;;;;;;;;;;;;4.33;67.26;100392.50;4391019;32;34605;-80
2024/01/26 06:20:21;;;;;;;;;;;;;;;4.47;66.78;100403.97;4390007;32;34117;-80
2024/01/26 06:22:50;;;;;;;;;;;;;;;4.44;66.92;100398.72;4392071;32;33426;-80
2024/01/26 06:25:19;;;;;;;;;;;;;;;4.45;66.60;100387.62;4387880;32;34827;-80
2024/01/26 06:27:48;;;;;;;;;;;;;;;4.20;67.44;100393.88;4386722;32;34976;-80
2024/01/26 06:30:24;;;;;;;;;;;;;;;4.32;67.24;100393.31;4388914;32;34005;-81
2024/01/26 06:32:52;;;;;;;;;;;;;;;4.27;67.63;100389.75;4392073;32;33345;-80
2024/01/26 06:35:25;;;;;;;;;;;;;;;4.37;67.22;100398.56;4387223;32;33925;-80
2024/01/26 06:37:54;;;;;;;;;;;;;;;4.29;67.65;100393.25;4389512;32;32721;-80
2024/01/26 06:40:23;;;;;;;;;;;;;;;4.33;67.51;100389.06;4372885;32;33409;-80
2024/01/26 06:42:52;;;;;;;;;;;;;;;4.24;67.58;100393.13;4394365;32;34325;-80
2024/01/26 06:45:22;;;;;;;;;;;;;;;4.26;67.67;100396.59;4389125;32;33822;-80
2024/01/26 06:47:52;;;;;;;;;;;;;;;4.31;67.71;100393.28;4403814;32;34096;-80
2024/01/26 06:50:22;;;;;;;;;;;;;;;4.11;68.40;100388.56;4389747;32;33383;-80
2024/01/26 06:52:51;;;;;;;;;;;;;;;4.18;68.40;100390.44;4398792;32;32991;-80
2024/01/26 06:55:20;;;;;;;;;;;;;;;4.21;68.34;100389.63;4407227;32;34203;-80
2024/01/26 06:57:54;;;;;;;;;;;;;;;4.13;68.62;100384.31;4396290;32;34338;-81
2024/01/26 07:00:31;;;;;;;;;;;;;;;4.06;69.01;100387.56;4388391;32;33794;-80
2024/01/26 07:03:00;;;;;;;;;;;;;;;4.11;69.03;100385.97;4394452;32;33326;-81
2024/01/26 07:05:30;;;;;;;;;;;;;;;4.12;68.90;100385.13;4396922;32;34928;-81
2024/01/26 07:08:00;;;;;;;;;;;;;;;4.10;69.22;100384.22;4391067;32;32997;-80
2024/01/26 07:10:33;;;;;;;;;;;;;;;4.00;69.55;100387.41;4384967;32;33731;-81
2024/01/26 07:13:01;;;;;;;;;;;;;;;4.09;69.32;100389.34;4394715;32;33063;-80
2024/01/26 07:15:35;;;;;;;;;;;;;;;4.11;69.41;100396.25;4388921;32;33476;-81
2024/01/26 07:18:04;;;;;;;;;;;;;;;4.14;69.28;100404.03;4392094;32;33889;-81
2024/01/26 07:20:36;;;;;;;;;;;;;;;4.40;68.24;100404.66;4385916;32;34196;-80
2024/01/26 07:23:06;;;;;;;;;;;;;;;4.45;67.97;100407.31;4385382;32;32833;-81
2024/01/26 07:25:37;;;;;;;;;;;;;;;4.31;68.39;100404.44;4388489;32;34469;-80
2024/01/26 07:28:08;;;;;;;;;;;;;;;4.52;68.00;100421.16;4394521;32;33691;-80
2024/01/26 07:30:40;;;;;;;;;;;;;;;4.54;67.73;100422.94;4401090;32;34386;-80
2024/01/26 07:33:09;;;;;;;;;;;;;;;4.57;67.82;100424.72;4401678;32;33195;-81
2024/01/26 07:35:39;;;;;;;;;;;;;;;4.58;67.51;100417.03;4400936;32;34442;-80
2024/01/26 07:38:08;;;;;;;;;;;;;;;4.78;66.84;100419.19;4386756;32;33304;-80
2024/01/26 07:40:37;;;;;;;;;;;;;;;4.75;66.93;100424.25;4393663;32;34762;-81
2024/01/26 07:43:10;;;;;;;;;;;;;;;4.65;67.23;100426.63;4368482;32;34066;-81
2024/01/26 07:45:47;;;;;;;;;;;;;;;4.51;67.79;100422.88;4388212;32;33883;-81
2024/01/26 07:48:16;;;;;;;;;;;;;;;4.56;67.88;100425.53;4388364;32;35220;-80
2024/01/26 07:50:46;;;;;;;;;;;;;;;4.72;67.23;100429.34;4385530;32;34657;-81
2024/01/26 07:53:14;;;;;;;;;;;;;;;4.90;66.79;100428.06;4386693;32;33982;-81
2024/01/26 07:55:43;;;;;;;;;;;;;;;5.04;66.01;100432.59;4368923;32;32997;-81
2024/01/26 07:58:14;;;;;;;;;;;;;;;4.85;66.78;100426.19;4382820;32;33639;-80
2024/01/26 08:00:48;;;;;;;;;;;;;;;5.03;66.02;100430.88;4392142;32;33608;-80
2024/01/26 08:03:18;;;;;;;;;;;;;;;4.86;66.41;100423.66;4406988;32;32823;-80
2024/01/26 08:05:48;;;;;;;;;;;;;;;5.00;66.39;100434.25;4404706;32;34296;-80
2024/01/26 08:08:19;;;;;;;;;;;;;;;5.29;65.41;100433.97;4402494;32;34593;-80
2024/01/26 08:10:49;;;;;;;;;;;;;;;5.14;65.51;100419.09;4390396;32;33951;-80
2024/01/26 08:13:19;;;;;;;;;;;;;;;5.09;65.93;100428.41;4386441;32;32892;-81
2024/01/26 08:15:52;;;;;;;;;;;;;;;5.24;65.42;100427.84;4397231;32;34766;-81
2024/01/26 08:18:21;;;;;;;;;;;;;;;5.29;65.06;100422.00;4385169;32;34022;-80
2024/01/26 08:20:53;;;;;;;;;;;;;;;5.47;64.65;100420.59;4386817;32;33814;-81
2024/01/26 08:23:23;;;;;;;;;;;;;;;5.48;64.79;100427.47;4382895;32;34543;-80
2024/01/26 08:25:53;;;;;;;;;;;;;;;5.34;64.96;100422.09;4387211;32;34771;-81
2024/01/26 08:28:23;;;;;;;;;;;;;;;5.32;65.09;100421.19;4390224;32;35007;-80
2024/01/26 08:30:57;;;;;;;;;;;;;;;5.55;64.30;100416.47;4386088;32;33602;-81
2024/01/26 08:33:26;;;;;;;;;;;;;;;5.41;64.70;100418.75;4385452;32;32825;-80
2024/01/26 08:35:56;;;;;;;;;;;;;;;5.52;64.39;100425.00;4385900;32;34931;-81
2024/01/26 08:38:25;;;;;;;;;;;;;;;5.75;63.76;100425.44;4391099;32;34104;-80
2024/01/26 08:41:02;;;;;;;;;;;;;;;5.92;62.86;100436.03;4385378;32;33952;-81
2024/01/26 08:43:31;;;;;;;;;;;;;;;5.94;62.58;100431.81;4386680;32;34060;-80
2024/01/26 08:46:04;;;;;;;;;;;;;;;5.95;62.86;100441.28;4387253;32;34033;-81
2024/01/26 08:48:33;;;;;;;;;;;;;;;6.10;62.33;100444.94;4382987;32;33270;-81
2024/01/26 08:51:10;;;;;;;;;;;;;;;6.25;61.72;100439.19;4390528;32;34060;-80
2024/01/26 08:53:40;;;;;;;;;;;;;;;6.36;61.87;100437.66;4384746;32;32993;-80
2024/01/26 08:56:14;;;;;;;;;;;;;;;6.54;60.61;100450.81;4389688;32;33549;-80
2024/01/26 08:58:45;;;;;;;;;;;;;;;6.31;61.23;100450.47;4389257;32;34218;-81
2024/01/26 09:01:16;;;;;;;;;;;;;;;6.43;61.06;100461.78;4386033;32;35014;-80
2024/01/26 09:03:46;;;;;;;;;;;;;;;6.55;60.41;100459.44;4391921;32;32753;-81
2024/01/26 09:06:15;;;;;;;;;;;;;;;6.40;60.93;100457.47;4379526;32;33722;-81
2024/01/26 09:08:44;;;;;;;;;;;;;;;6.38;60.57;100457.44;4387112;32;33879;-80
2024/01/26 09:11:14;;;;;;;;;;;;;;;6.54;60.32;100455.09;4384604;32;33727;-81
2024/01/26 09:13:43;;;;;;;;;;;;;;;6.54;60.31;100452.53;4390976;32;33611;-81
2024/01/26 09:16:17;;;;;;;;;;;;;;;6.52;60.38;100451.63;4385869;32;33775;-81
2024/01/26 09:18:47;;;;;;;;;;;;;;;6.57;60.05;100462.88;4385797;32;34154;-81
2024/01/26 09:21:17;;;;;;;;;;;;;;;6.59;59.96;100461.19;4395933;32;34420;-81
2024/01/26 09:23:49;;;;;;;;;;;;;;;6.44;60.18;100460.97;4392759;32;33005;-82
2024/01/26 09:26:21;;;;;;;;;;;;;;;6.50;59.88;100458.47;4387023;32;33626;-80
2024/01/26 09:28:56;;;;;;;;;;;;;;;6.56;59.97;100467.19;4385694;32;34098;-81
2024/01/26 09:31:26;;;;;;;;;;;;;;;6.71;59.55;100461.38;4386464;32;33676;-80
2024/01/26 09:33:58;;;;;;;;;;;;;;;6.63;59.62;100457.81;4381427;32;33808;-80
2024/01/26 09:36:27;;;;;;;;;;;;;;;6.75;59.29;100467.47;4387230;32;34860;-80
2024/01/26 09:38:59;;;;;;;;;;;;;;;6.75;59.37;100452.00;4390143;32;34132;-81
2024/01/26 09:41:27;;;;;;;;;;;;;;;6.83;59.31;100460.69;4384830;32;33349;-81
2024/01/26 09:43:58;;;;;;;;;;;;;;;6.93;58.30;100461.69;4383982;32;32856;-81
2024/01/26 09:46:29;;;;;;;;;;;;;;;6.89;58.56;100458.22;4397125;32;33592;-81
2024/01/26 09:48:58;;;;;;;;;;;;;;;6.79;58.90;100459.81;4393922;32;34118;-81
2024/01/26 09:51:27;;;;;;;;;;;;;;;6.95;57.91;100465.16;4385599;32;33853;-80
2024/01/26 09:54:00;;;;;;;;;;;;;;;6.83;57.85;100464.13;4385784;32;33158;-81
2024/01/26 09:56:29;;;;;;;;;;;;;;;7.19;56.97;100462.91;4387398;32;34435;-81
2024/01/26 09:59:04;;;;;;;;;;;;;;;7.09;56.81;100458.47;4387429;32;34265;-81
2024/01/26 10:01:34;;;;;;;;;;;;;;;7.37;56.34;100458.81;4378202;32;33203;-81
2024/01/26 10:04:10;;;;;;;;;;;;;;;7.43;55.72;100461.50;4384212;32;33075;-81
2024/01/26 10:06:39;;;;;;;;;;;;;;;7.35;55.98;100465.69;4390396;32;34872;-81
2024/01/26 10:09:13;;;;;;;;;;;;;;;7.45;55.08;100457.22;4396682;32;34275;-81
2024/01/26 10:11:42;;;;;;;;;;;;;;;7.34;54.93;100454.50;4405026;32;34007;-81
2024/01/26 10:14:20;;;;;;;;;;;;;;;7.33;54.61;100439.00;4386219;32;33544;-81
2024/01/26 10:16:56;;;;;;;;;;;;;;;7.46;53.99;100438.28;4387108;32;33618;-81
2024/01/26 10:19:46;;;;;;;;;;;;;;;7.77;53.46;100433.47;4386627;32;33957;-82
2024/01/26 10:22:15;;;;;;;;;;;;;;;7.87;52.71;100430.97;4397758;32;33948;-81
2024/01/26 10:24:45;;;;;;;;;;;;;;;7.82;52.00;100422.31;4405913;32;33113;-80
2024/01/26 10:27:15;;;;;;;;;;;;;;;8.05;50.52;100414.78;4396066;32;34146;-81
2024/01/26 10:29:44;;;;;;;;;;;;;;;7.79;50.45;100432.63;4386943;32;34170;-81
2024/01/26 10:32:15;;;;;;;;;;;;;;;7.67;49.84;100427.34;4385814;32;33863;-81
2024/01/26 10:34:44;;;;;;;;;;;;;;;7.82;49.76;100409.38;4385297;32;33087;-81
2024/01/26 10:37:14;;;;;;;;;;;;;;;8.02;49.44;100413.87;4391333;32;34495;-81
2024/01/26 10:39:43;;;;;;;;;;;;;;;8.22;49.68;100424.41;4391473;32;35110;-80
2024/01/26 10:42:13;;;;;;;;;;;;;;;7.84;50.17;100422.34;4385858;32;33810;-80
2024/01/26 10:44:46;;;;;;;;;;;;;;;7.94;49.99;100431.03;4386855;32;33353;-81
2024/01/26 10:47:19;;;;;;;;;;;;;;;7.89;50.05;100418.06;4389909;32;34445;-81
2024/01/26 10:49:49;;;;;;;;;;;;;;;7.87;50.44;100418.03;4388881;32;34855;-81
2024/01/26 10:52:22;;;;;;;;;;;;;;;8.15;49.46;100428.66;4383415;32;34193;-82
2024/01/26 10:54:57;;;;;;;;;;;;;;;7.99;49.52;100444.84;4386726;32;33635;-80
2024/01/26 10:57:28;;;;;;;;;;;;;;;7.78;49.57;100436.06;4385784;32;32743;-81
2024/01/26 10:59:56;;;;;;;;;;;;;;;8.01;49.25;100422.50;4392021;32;34239;-81
2024/01/26 11:02:31;;;;;;;;;;;;;;;8.31;48.56;100425.34;4386222;32;34556;-81
2024/01/26 11:05:02;;;;;;;;;;;;;;;8.39;49.43;100433.16;4386131;32;33370;-81
2024/01/26 11:07:33;;;;;;;;;;;;;;;8.24;50.70;100427.84;4380339;32;34022;-81
2024/01/26 11:10:04;;;;;;;;;;;;;;;8.06;51.33;100426.84;4385716;32;35133;-81
2024/01/26 11:12:34;;;;;;;;;;;;;;;8.15;51.37;100426.06;4390264;32;33106;-81
2024/01/26 11:15:08;;;;;;;;;;;;;;;8.23;50.92;100426.13;4386502;32;32281;-82
2024/01/26 11:17:45;;;;;;;;;;;;;;;8.12;51.21;100418.28;4390376;32;34144;-81
2024/01/26 11:20:25;;;;;;;;;;;;;;;8.15;48.78;100417.44;4386638;32;35560;-81
2024/01/26 11:23:06;;;;;;;;;;;;;;;8.24;48.88;100410.63;4386672;32;33681;-80
2024/01/26 11:25:43;;;;;;;;;;;;;;;8.24;49.18;100405.47;4391613;32;34659;-81
2024/01/26 11:28:12;;;;;;;;;;;;;;;8.46;49.27;100401.34;4388507;32;34703;-81
2024/01/26 11:30:43;;;;;;;;;;;;;;;8.67;49.22;100402.31;4386248;32;35338;-81
2024/01/26 11:33:19;;;;;;;;;;;;;;;8.52;48.14;100403.09;4385710;32;34020;-82
2024/01/26 11:35:49;;;;;;;;;;;;;;;8.47;47.92;100397.03;4386479;32;33990;-81
2024/01/26 11:38:18;;;;;;;;;;;;;;;8.64;47.70;100403.19;4377193;32;33317;-81
2024/01/26 11:40:49;;;;;;;;;;;;;;;8.53;47.08;100404.84;4385207;32;33590;-81
2024/01/26 11:43:20;;;;;;;;;;;;;;;8.46;47.43;100403.06;4379429;32;35042;-81
2024/01/26 11:45:49;;;;;;;;;;;;;;;8.60;47.34;100395.38;4385886;32;33929;-81
2024/01/26 11:48:23;;;;;;;;;;;;;;;8.56;48.09;100401.41;4387710;32;34373;-81
2024/01/26 11:50:53;;;;;;;;;;;;;;;8.48;48.88;100393.56;4391464;32;34209;-81
2024/01/26 11:53:24;;;;;;;;;;;;;;;8.60;47.81;100390.22;4382337;32;33438;-80
2024/01/26 11:55:54;;;;;;;;;;;;;;;8.58;48.15;100385.03;4387764;32;33475;-81
2024/01/26 11:58:26;;;;;;;;;;;;;;;8.50;47.89;100377.22;4387322;32;33000;-81
2024/01/26 12:00:55;;;;;;;;;;;;;;;8.31;48.94;100376.22;4390398;32;34109;-80
2024/01/26 12:03:29;;;;;;;;;;;;;;;8.47;48.54;100366.00;4371211;32;33820;-81
2024/01/26 12:05:58;;;;;;;;;;;;;;;8.91;47.64;100365.38;4382636;32;33905;-81
2024/01/26 12:08:28;;;;;;;;;;;;;;;8.98;47.42;100355.03;4386337;32;34061;-81
2024/01/26 12:10:59;;;;;;;;;;;;;;;9.02;47.39;100347.31;4385754;32;32939;-81
2024/01/26 12:13:33;;;;;;;;;;;;;;;8.83;47.92;100338.59;4390313;32;34769;-81
2024/01/26 12:16:03;;;;;;;;;;;;;;;8.80;47.12;100349.81;4384684;32;33002;-81
2024/01/26 12:18:40;;;;;;;;;;;;;;;8.94;46.93;100342.97;4387079;32;33576;-81
2024/01/26 12:21:11;;;;;;;;;;;;;;;8.60;47.60;100344.53;4384718;32;34058;-81
2024/01/26 12:23:40;;;;;;;;;;;;;;;8.71;47.52;100345.44;4389844;32;34331;-82
2024/01/26 12:26:16;;;;;;;;;;;;;;;8.63;47.58;100339.38;4386762;32;33136;-81
2024/01/26 12:28:44;;;;;;;;;;;;;;;8.78;47.08;100333.41;4387413;32;33729;-81
2024/01/26 12:31:17;;;;;;;;;;;;;;;8.92;46.74;100331.75;4386432;32;35114;-81
2024/01/26 12:33:48;;;;;;;;;;;;;;;8.66;46.68;100334.22;4385276;32;34394;-81
2024/01/26 12:36:18;;;;;;;;;;;;;;;8.54;47.81;100332.44;4389213;32;33610;-81
2024/01/26 12:38:48;;;;;;;;;;;;;;;8.80;46.86;100329.13;4385380;32;33666;-81
2024/01/26 12:41:20;;;;;;;;;;;;;;;8.92;46.61;100316.22;4383431;32;34652;-80
2024/01/26 12:43:50;;;;;;;;;;;;;;;8.82;46.62;100317.06;4385457;32;34221;-81
2024/01/26 12:46:27;;;;;;;;;;;;;;;8.96;46.05;100312.78;4389145;32;34146;-80
2024/01/26 12:49:04;;;;;;;;;;;;;;;8.63;46.51;100320.41;4389205;32;33848;-81
2024/01/26 12:51:34;;;;;;;;;;;;;;;8.63;46.24;100304.91;4384603;32;34680;-81
2024/01/26 12:54:05;;;;;;;;;;;;;;;8.73;45.44;100296.31;4382763;32;34168;-81
2024/01/26 12:59:23;;;;;;;;;;;;;;;8.79;45.73;100285.13;4381638;32;34134;-81
2024/01/26 13:01:53;;;;;;;;;;;;;;;8.72;45.70;100284.22;4387182;32;34483;-81
2024/01/26 13:04:25;;;;;;;;;;;;;;;8.68;45.70;100279.91;4384306;32;33909;-81
2024/01/26 13:06:55;;;;;;;;;;;;;;;8.49;46.20;100269.47;4384446;32;32960;-81
2024/01/26 13:09:33;;;;;;;;;;;;;;;8.40;46.98;100277.19;4371766;32;33281;-80
2024/01/26 13:12:03;;;;;;;;;;;;;;;8.44;46.91;100273.78;4381544;32;34617;-80
2024/01/26 13:14:32;;;;;;;;;;;;;;;8.56;46.69;100272.97;4390878;32;34775;-81
2024/01/26 13:17:00;;;;;;;;;;;;;;;8.65;45.52;100285.06;4385019;32;33093;-80